createdAt,value
2023-01-15T00:00:32.990Z,7.98
2023-01-15T00:03:18.202Z,8.01
2023-01-15T00:06:02.967Z,7.98
2023-01-15T00:08:47.640Z,7.98
2023-01-15T00:11:32.371Z,8.01
2023-01-15T00:14:17.017Z,8.08
2023-01-15T00:17:01.894Z,8.10
2023-01-15T00:19:46.703Z,8.10
2023-01-15T00:22:31.559Z,8.17
2023-01-15T00:25:16.248Z,8.22
2023-01-15T00:28:01.946Z,8.21
2023-01-15T00:30:46.883Z,8.24
2023-01-15T00:33:31.519Z,8.27
2023-01-15T00:36:16.252Z,8.30
2023-01-15T00:39:00.919Z,8.31
2023-01-15T00:41:45.638Z,8.36
2023-01-15T00:44:30.320Z,8.35
2023-01-15T00:47:15.095Z,8.37
2023-01-15T00:49:59.796Z,8.28
2023-01-15T00:52:44.672Z,8.18
2023-01-15T00:55:29.456Z,8.05
2023-01-15T00:58:14.209Z,8.01
2023-01-15T01:00:59.134Z,7.96
2023-01-15T01:03:44.217Z,7.97
2023-01-15T01:06:28.931Z,7.92
2023-01-15T01:09:13.708Z,7.85
2023-01-15T01:11:58.436Z,7.98
2023-01-15T01:14:43.078Z,8.03
2023-01-15T01:17:28.023Z,7.99
2023-01-15T01:20:12.647Z,7.93
2023-01-15T01:22:57.427Z,7.85
2023-01-15T01:25:42.155Z,7.77
2023-01-15T01:28:26.915Z,7.68
2023-01-15T01:31:11.777Z,7.65
2023-01-15T01:33:56.416Z,7.69
2023-01-15T01:36:41.155Z,7.74
2023-01-15T01:39:25.953Z,7.74
2023-01-15T01:42:10.716Z,7.78
2023-01-15T01:44:55.396Z,7.84
2023-01-15T01:47:40.024Z,7.86
2023-01-15T01:50:24.741Z,7.94
2023-01-15T01:53:09.452Z,7.95
2023-01-15T01:55:54.290Z,8.02
2023-01-15T01:58:39.038Z,8.03
2023-01-15T02:01:24.008Z,8.06
2023-01-15T02:04:09.179Z,7.96
2023-01-15T02:06:53.989Z,8.05
2023-01-15T02:09:38.667Z,8.03
2023-01-15T02:12:23.436Z,8.01
2023-01-15T02:15:08.258Z,8.00
2023-01-15T02:17:53.146Z,7.99
2023-01-15T02:20:37.927Z,8.05
2023-01-15T02:23:22.869Z,8.06
2023-01-15T02:26:07.714Z,8.12
2023-01-15T02:28:52.431Z,8.05
2023-01-15T02:31:37.319Z,8.08
2023-01-15T02:34:21.980Z,8.12
2023-01-15T02:37:06.904Z,8.09
2023-01-15T02:39:51.640Z,8.02
2023-01-15T02:42:36.380Z,8.02
2023-01-15T02:45:21.013Z,8.07
2023-01-15T02:48:05.895Z,8.06
2023-01-15T02:50:50.651Z,8.05
2023-01-15T02:53:35.305Z,7.93
2023-01-15T02:56:20.029Z,7.84
2023-01-15T02:59:04.825Z,7.88
2023-01-15T03:01:49.701Z,7.85
2023-01-15T03:04:34.938Z,7.84
2023-01-15T03:07:19.897Z,7.90
2023-01-15T03:10:04.710Z,7.87
2023-01-15T03:12:49.459Z,7.86
2023-01-15T03:15:34.148Z,7.88
2023-01-15T03:18:18.945Z,7.87
2023-01-15T03:21:03.705Z,7.82
2023-01-15T03:23:48.488Z,7.90
2023-01-15T03:26:33.311Z,7.90
2023-01-15T03:29:18.052Z,7.88
2023-01-15T03:32:03.010Z,7.90
2023-01-15T03:34:47.646Z,7.87
2023-01-15T03:37:32.485Z,7.97
2023-01-15T03:40:17.280Z,7.97
2023-01-15T03:43:01.964Z,7.92
2023-01-15T03:45:46.757Z,7.96
2023-01-15T03:48:31.619Z,8.01
2023-01-15T03:51:16.447Z,8.05
2023-01-15T03:54:01.261Z,8.03
2023-01-15T03:56:46.142Z,8.07
2023-01-15T03:59:30.809Z,8.19
2023-01-15T04:02:15.643Z,8.24
2023-01-15T04:05:00.661Z,8.28
2023-01-15T04:07:45.454Z,8.33
2023-01-15T04:10:30.239Z,8.37
2023-01-15T04:13:14.914Z,8.35
2023-01-15T04:15:59.607Z,8.37
2023-01-15T04:18:44.403Z,8.40
2023-01-15T04:21:29.205Z,8.41
2023-01-15T04:24:14.017Z,8.41
2023-01-15T04:26:58.764Z,8.35
2023-01-15T04:29:43.449Z,8.15
2023-01-15T04:32:28.213Z,8.01
2023-01-15T04:35:12.800Z,7.89
2023-01-15T04:37:57.698Z,7.87
2023-01-15T04:40:42.400Z,7.96
2023-01-15T04:43:27.190Z,7.98
2023-01-15T04:46:11.973Z,8.03
2023-01-15T04:48:57.196Z,8.03
2023-01-15T04:51:41.968Z,7.94
2023-01-15T04:54:26.673Z,8.00
2023-01-15T04:57:11.300Z,7.97
2023-01-15T04:59:56.024Z,8.04
2023-01-15T05:02:40.814Z,8.07
2023-01-15T05:05:25.456Z,8.02
2023-01-15T05:08:10.318Z,8.05
2023-01-15T05:10:54.985Z,8.10
2023-01-15T05:13:40.034Z,8.00
2023-01-15T05:16:24.764Z,7.96
2023-01-15T05:19:09.643Z,7.99
2023-01-15T05:21:54.394Z,7.90
2023-01-15T05:24:39.015Z,7.96
2023-01-15T05:27:23.607Z,7.86
2023-01-15T05:30:08.242Z,7.84
2023-01-15T05:32:53.076Z,7.85
2023-01-15T05:35:37.744Z,7.77
2023-01-15T05:38:22.652Z,7.76
2023-01-15T05:41:07.459Z,7.77
2023-01-15T05:43:52.357Z,7.78
2023-01-15T05:46:37.142Z,7.79
2023-01-15T05:49:21.977Z,7.76
2023-01-15T05:52:06.826Z,7.66
2023-01-15T05:54:51.461Z,7.58
2023-01-15T05:57:36.244Z,7.55
2023-01-15T06:00:20.986Z,7.56
2023-01-15T06:03:05.843Z,7.50
2023-01-15T06:05:50.379Z,7.43
2023-01-15T06:08:35.106Z,7.36
2023-01-15T06:11:19.960Z,7.28
2023-01-15T06:14:04.825Z,7.28
2023-01-15T06:16:49.481Z,7.31
2023-01-15T06:19:34.216Z,7.31
2023-01-15T06:22:18.948Z,7.29
2023-01-15T06:25:03.685Z,7.23
2023-01-15T06:27:48.598Z,7.23
2023-01-15T06:30:33.247Z,7.31
2023-01-15T06:33:18.065Z,7.17
2023-01-15T06:36:02.853Z,7.12
2023-01-15T06:38:47.631Z,7.16
2023-01-15T06:41:32.403Z,7.12
2023-01-15T06:44:17.223Z,7.16
2023-01-15T06:47:01.866Z,7.25
2023-01-15T06:49:46.544Z,7.15
2023-01-15T06:52:31.363Z,7.12
2023-01-15T06:55:16.130Z,7.05
2023-01-15T06:58:00.872Z,7.04
2023-01-15T07:00:45.723Z,7.07
2023-01-15T07:03:30.687Z,7.15
2023-01-15T07:06:15.844Z,7.18
2023-01-15T07:09:00.565Z,7.15
2023-01-15T07:11:45.261Z,7.10
2023-01-15T07:14:30.088Z,7.16
2023-01-15T07:17:14.783Z,7.15
2023-01-15T07:19:59.564Z,7.10
2023-01-15T07:22:44.305Z,7.07
2023-01-15T07:25:29.095Z,7.04
2023-01-15T07:28:14.037Z,6.95
2023-01-15T07:30:58.756Z,7.05
2023-01-15T07:33:43.653Z,7.16
2023-01-15T07:36:28.326Z,7.21
2023-01-15T07:39:13.105Z,7.27
2023-01-15T07:41:57.757Z,7.17
2023-01-15T07:44:42.515Z,7.31
2023-01-15T07:47:27.174Z,7.26
2023-01-15T07:50:12.004Z,7.25
2023-01-15T07:52:56.804Z,7.33
2023-01-15T07:55:41.559Z,7.43
2023-01-15T07:58:26.435Z,7.45
2023-01-15T08:01:11.301Z,7.36
2023-01-15T08:03:56.555Z,7.32
2023-01-15T08:06:41.181Z,7.19
2023-01-15T08:09:25.793Z,7.10
2023-01-15T08:12:10.475Z,7.06
2023-01-15T08:14:55.187Z,7.24
2023-01-15T08:17:39.947Z,7.28
2023-01-15T08:20:24.748Z,7.40
2023-01-15T08:23:09.575Z,7.49
2023-01-15T08:25:54.236Z,7.53
2023-01-15T08:28:39.063Z,7.48
2023-01-15T08:31:23.749Z,7.58
2023-01-15T08:34:08.524Z,7.63
2023-01-15T08:36:53.225Z,7.67
2023-01-15T08:39:38.073Z,7.76
2023-01-15T08:42:22.841Z,7.87
2023-01-15T08:45:07.636Z,7.97
2023-01-15T08:47:52.395Z,8.05
2023-01-15T08:50:37.169Z,7.94
2023-01-15T08:53:22.066Z,7.83
2023-01-15T08:56:06.804Z,7.73
2023-01-15T08:58:51.723Z,7.82
2023-01-15T09:01:36.494Z,7.85
2023-01-15T09:04:22.493Z,7.82
2023-01-15T09:07:07.851Z,7.58
2023-01-15T09:09:52.622Z,7.58
2023-01-15T09:12:37.345Z,7.62
2023-01-15T09:15:22.152Z,7.92
2023-01-15T09:18:07.092Z,8.12
2023-01-15T09:20:51.824Z,8.35
2023-01-15T09:23:36.736Z,8.59
2023-01-15T09:26:21.338Z,8.68
2023-01-15T09:29:06.098Z,8.67
2023-01-15T09:31:50.730Z,8.64
2023-01-15T09:34:35.629Z,8.64
2023-01-15T09:37:20.346Z,8.74
2023-01-15T09:40:05.169Z,8.76
2023-01-15T09:42:49.877Z,8.85
2023-01-15T09:45:34.718Z,8.50
2023-01-15T09:48:19.431Z,8.39
2023-01-15T09:51:04.170Z,8.40
2023-01-15T09:53:48.997Z,8.51
2023-01-15T09:56:33.553Z,8.64
2023-01-15T09:59:18.538Z,8.55
2023-01-15T10:02:03.566Z,8.54
2023-01-15T10:04:48.423Z,8.53
2023-01-15T10:07:33.125Z,8.46
2023-01-15T10:10:18.368Z,8.51
2023-01-15T10:13:03.375Z,8.31
2023-01-15T10:15:48.077Z,8.38
2023-01-15T10:18:32.843Z,8.57
2023-01-15T10:21:17.566Z,8.85
2023-01-15T10:24:02.680Z,8.90
2023-01-15T10:26:47.368Z,8.92
2023-01-15T10:29:32.156Z,8.93
2023-01-15T10:32:17.199Z,9.02
2023-01-15T10:35:02.447Z,9.15
2023-01-15T10:37:47.387Z,9.28
2023-01-15T10:40:32.115Z,9.41
2023-01-15T10:43:17.048Z,9.63
2023-01-15T10:46:01.945Z,9.71
2023-01-15T10:48:46.767Z,9.77
2023-01-15T10:51:31.495Z,9.80
2023-01-15T10:54:16.469Z,9.92
2023-01-15T10:57:01.133Z,9.93
2023-01-15T10:59:45.974Z,9.99
2023-01-15T11:02:30.735Z,10.02
2023-01-15T11:05:15.913Z,9.94
2023-01-15T11:08:34.286Z,9.72
2023-01-15T11:11:05.511Z,9.59
2023-01-15T11:13:50.428Z,9.39
2023-01-15T11:16:35.232Z,9.02
2023-01-15T11:19:21.090Z,8.73
2023-01-15T11:22:06.261Z,8.61
2023-01-15T11:24:51.039Z,8.34
2023-01-15T11:27:35.847Z,8.35
2023-01-15T11:30:20.566Z,8.13
2023-01-15T11:33:05.309Z,7.99
2023-01-15T11:35:50.031Z,7.57
2023-01-15T11:38:34.831Z,7.47
2023-01-15T11:41:19.535Z,7.11
2023-01-15T11:44:04.421Z,6.92
2023-01-15T11:46:49.167Z,6.47
2023-01-15T11:49:34.054Z,6.12
2023-01-15T11:52:18.924Z,5.91
2023-01-15T11:55:03.560Z,5.60
2023-01-15T11:57:48.317Z,5.46
2023-01-15T12:00:32.958Z,5.52
2023-01-15T12:03:17.892Z,5.67
2023-01-15T12:06:02.606Z,5.83
2023-01-15T12:08:47.298Z,6.02
2023-01-15T12:11:32.012Z,5.91
2023-01-15T12:14:16.863Z,5.95
2023-01-15T12:17:01.769Z,6.08
2023-01-15T12:19:46.405Z,5.95
2023-01-15T12:22:31.201Z,5.88
2023-01-15T12:25:15.928Z,5.73
2023-01-15T12:28:00.715Z,5.65
2023-01-15T12:30:45.383Z,5.48
2023-01-15T12:33:30.126Z,5.44
2023-01-15T12:36:14.825Z,5.51
2023-01-15T12:38:59.591Z,5.69
2023-01-15T12:41:44.290Z,5.69
2023-01-15T12:44:28.991Z,5.67
2023-01-15T12:47:13.894Z,5.59
2023-01-15T12:49:58.625Z,5.65
2023-01-15T12:52:43.353Z,5.70
2023-01-15T12:55:27.958Z,5.72
2023-01-15T12:58:12.722Z,5.67
2023-01-15T13:00:57.583Z,5.54
2023-01-15T13:03:42.268Z,5.54
2023-01-15T13:06:26.929Z,5.54
2023-01-15T13:09:11.798Z,5.36
2023-01-15T13:11:56.600Z,5.30
2023-01-15T13:14:41.386Z,5.21
2023-01-15T13:17:26.144Z,5.30
2023-01-15T13:20:10.910Z,5.17
2023-01-15T13:22:55.711Z,5.11
2023-01-15T13:25:40.423Z,5.06
2023-01-15T13:28:25.158Z,5.25
2023-01-15T13:31:09.837Z,5.44
2023-01-15T13:33:54.625Z,5.54
2023-01-15T13:36:39.381Z,5.67
2023-01-15T13:39:24.085Z,5.81
2023-01-15T13:42:08.775Z,5.85
2023-01-15T13:44:53.579Z,5.83
2023-01-15T13:47:38.200Z,5.80
2023-01-15T13:50:22.861Z,5.79
2023-01-15T13:53:07.688Z,5.62
2023-01-15T13:55:52.453Z,5.60
2023-01-15T13:58:37.202Z,5.55
2023-01-15T14:01:21.928Z,5.42
2023-01-15T14:04:06.808Z,5.03
2023-01-15T14:06:51.499Z,4.89
2023-01-15T14:09:36.346Z,4.95
2023-01-15T14:12:21.220Z,5.13
2023-01-15T14:15:05.912Z,5.31
2023-01-15T14:17:50.734Z,5.47
2023-01-15T14:20:35.507Z,5.57
2023-01-15T14:23:20.473Z,5.67
2023-01-15T14:26:05.117Z,5.81
2023-01-15T14:28:49.884Z,5.72
2023-01-15T14:31:34.752Z,5.79
2023-01-15T14:34:19.416Z,5.78
2023-01-15T14:37:04.196Z,5.79
2023-01-15T14:39:48.900Z,5.73
2023-01-15T14:42:33.531Z,5.68
2023-01-15T14:45:18.212Z,5.77
2023-01-15T14:48:02.911Z,5.71
2023-01-15T14:50:47.581Z,5.75
2023-01-15T14:53:32.286Z,5.62
2023-01-15T14:56:17.006Z,5.60
2023-01-15T14:59:02.007Z,5.61
2023-01-15T15:01:46.749Z,5.55
2023-01-15T15:04:32.092Z,5.40
2023-01-15T15:07:16.800Z,5.41
2023-01-15T15:10:01.600Z,5.38
2023-01-15T15:12:46.280Z,5.17
2023-01-15T15:15:31.051Z,5.08
2023-01-15T15:18:15.757Z,4.89
2023-01-15T15:21:00.550Z,4.79
2023-01-15T15:23:45.259Z,4.79
2023-01-15T15:26:29.930Z,4.84
2023-01-15T15:29:14.767Z,4.94
2023-01-15T15:31:59.399Z,5.01
2023-01-15T15:34:44.084Z,4.94
2023-01-15T15:37:28.894Z,4.90
2023-01-15T15:40:13.601Z,4.92
2023-01-15T15:42:58.417Z,4.81
2023-01-15T15:45:43.253Z,4.74
2023-01-15T15:48:28.310Z,4.84
2023-01-15T15:51:13.123Z,4.92
2023-01-15T15:53:57.870Z,4.86
2023-01-15T15:56:42.638Z,4.70
2023-01-15T15:59:27.709Z,4.62
2023-01-15T16:02:12.598Z,4.54
2023-01-15T16:04:57.915Z,4.44
2023-01-15T16:07:42.477Z,4.31
2023-01-15T16:10:27.257Z,4.23
2023-01-15T16:13:11.834Z,4.13
2023-01-15T16:15:56.592Z,4.08
2023-01-15T16:18:41.276Z,4.06
2023-01-15T16:21:26.028Z,3.99
2023-01-15T16:24:10.885Z,3.91
2023-01-15T16:26:55.572Z,3.88
2023-01-15T16:29:40.422Z,3.91
2023-01-15T16:32:25.091Z,3.91
2023-01-15T16:35:09.897Z,3.87
2023-01-15T16:37:54.618Z,3.67
2023-01-15T16:40:39.328Z,3.55
2023-01-15T16:43:24.104Z,3.49
2023-01-15T16:46:09.000Z,3.43
2023-01-15T16:48:53.664Z,3.29
2023-01-15T16:51:38.399Z,3.13
2023-01-15T16:54:23.319Z,3.04
2023-01-15T16:57:07.969Z,2.97
2023-01-15T16:59:52.772Z,2.89
2023-01-15T17:02:37.586Z,2.94
2023-01-15T17:05:22.410Z,2.95
2023-01-15T17:08:07.207Z,3.01
2023-01-15T17:10:52.100Z,3.06
2023-01-15T17:13:36.755Z,2.95
2023-01-15T17:16:21.482Z,2.81
2023-01-15T17:19:06.427Z,2.83
2023-01-15T17:21:51.119Z,2.97
2023-01-15T17:24:35.933Z,3.11
2023-01-15T17:27:20.563Z,3.23
2023-01-15T17:30:05.383Z,3.12
2023-01-15T17:32:50.010Z,3.12
2023-01-15T17:35:34.608Z,3.15
2023-01-15T17:38:19.265Z,3.14
2023-01-15T17:41:04.009Z,3.02
2023-01-15T17:43:48.797Z,2.94
2023-01-15T17:46:33.741Z,2.80
2023-01-15T17:49:18.899Z,2.64
2023-01-15T17:52:03.655Z,2.66
2023-01-15T17:54:48.405Z,2.80
2023-01-15T17:57:33.180Z,2.89
2023-01-15T18:00:17.982Z,2.96
2023-01-15T18:03:02.608Z,2.89
2023-01-15T18:05:47.388Z,2.83
2023-01-15T18:08:32.148Z,2.79
2023-01-15T18:11:16.970Z,2.82
2023-01-15T18:14:01.747Z,2.80
2023-01-15T18:16:46.655Z,2.76
2023-01-15T18:19:31.480Z,2.67
2023-01-15T18:22:16.303Z,2.63
2023-01-15T18:25:01.209Z,2.55
2023-01-15T18:27:46.648Z,2.51
2023-01-15T18:30:31.453Z,2.48
2023-01-15T18:33:16.302Z,2.47
2023-01-15T18:36:01.174Z,2.47
2023-01-15T18:38:46.761Z,2.45
2023-01-15T18:41:32.485Z,2.41
2023-01-15T18:44:17.561Z,2.35
2023-01-15T18:47:02.438Z,2.30
2023-01-15T18:49:47.317Z,2.20
2023-01-15T18:52:31.958Z,2.09
2023-01-15T18:55:16.753Z,2.15
2023-01-15T18:58:01.989Z,2.17
2023-01-15T19:00:46.834Z,2.07
2023-01-15T19:03:31.481Z,1.97
2023-01-15T19:06:16.278Z,1.95
2023-01-15T19:09:01.015Z,1.97
2023-01-15T19:11:45.733Z,1.97
2023-01-15T19:14:30.530Z,1.91
2023-01-15T19:17:15.104Z,1.79
2023-01-15T19:19:59.932Z,1.75
2023-01-15T19:22:44.624Z,1.79
2023-01-15T19:25:29.350Z,1.65
2023-01-15T19:28:13.948Z,1.53
2023-01-15T19:30:58.717Z,1.37
2023-01-15T19:33:43.345Z,1.29
2023-01-15T19:36:28.238Z,1.15
2023-01-15T19:39:12.902Z,1.03
2023-01-15T19:41:57.617Z,1.18
2023-01-15T19:44:42.320Z,1.38
2023-01-15T19:47:27.139Z,1.42
2023-01-15T19:50:11.982Z,1.42
2023-01-15T19:52:56.712Z,1.50
2023-01-15T19:55:41.549Z,1.50
2023-01-15T19:58:26.260Z,1.41
2023-01-15T20:01:11.395Z,1.37
2023-01-15T20:03:56.493Z,1.40
2023-01-15T20:06:41.249Z,1.37
2023-01-15T20:09:26.061Z,1.28
2023-01-15T20:12:10.691Z,1.32
2023-01-15T20:14:55.650Z,1.35
2023-01-15T20:17:40.323Z,1.66
2023-01-15T20:20:25.134Z,1.77
2023-01-15T20:23:09.896Z,2.50
2023-01-15T20:25:54.757Z,2.79
2023-01-15T20:28:39.708Z,4.01
2023-01-15T20:31:24.550Z,3.24
2023-01-15T20:34:09.813Z,2.96
2023-01-15T20:36:54.711Z,2.66
2023-01-15T20:39:39.663Z,2.24
2023-01-15T20:42:24.439Z,1.89
2023-01-15T20:45:09.273Z,1.62
2023-01-15T20:47:54.074Z,1.35
2023-01-15T20:50:38.863Z,1.21
2023-01-15T20:53:23.601Z,1.11
2023-01-15T20:56:08.520Z,0.98
2023-01-15T20:58:53.124Z,1.14
2023-01-15T21:01:38.050Z,1.40
2023-01-15T21:04:23.330Z,1.59
2023-01-15T21:07:08.174Z,1.56
2023-01-15T21:09:52.842Z,1.45
2023-01-15T21:12:37.569Z,1.24
2023-01-15T21:15:22.341Z,1.03
2023-01-15T21:18:07.050Z,0.84
2023-01-15T21:20:51.991Z,0.82
2023-01-15T21:23:36.689Z,0.68
2023-01-15T21:26:21.617Z,0.57
2023-01-15T21:29:06.356Z,0.47
2023-01-15T21:31:51.139Z,0.47
2023-01-15T21:34:36.035Z,0.54
2023-01-15T21:37:20.851Z,0.47
2023-01-15T21:40:05.555Z,0.37
2023-01-15T21:42:50.268Z,0.33
2023-01-15T21:45:35.159Z,0.33
2023-01-15T21:48:19.760Z,0.79
2023-01-15T21:51:04.591Z,0.66
2023-01-15T21:53:49.386Z,0.42
2023-01-15T21:56:34.773Z,0.45
2023-01-15T21:59:21.815Z,0.62
2023-01-15T22:02:06.931Z,0.60
2023-01-15T22:04:51.886Z,0.46
2023-01-15T22:07:36.637Z,0.19
2023-01-15T22:10:21.518Z,0.10
2023-01-15T22:13:06.232Z,0.03
2023-01-15T22:15:51.003Z,0.09
2023-01-15T22:18:35.835Z,0.09
2023-01-15T22:21:20.539Z,0.05
2023-01-15T22:24:05.448Z,0.06
2023-01-15T22:26:50.192Z,-0.01
2023-01-15T22:29:35.140Z,-0.09
2023-01-15T22:32:19.879Z,-0.10
2023-01-15T22:35:04.642Z,-0.09
2023-01-15T22:37:49.278Z,-0.07
2023-01-15T22:40:34.063Z,-0.03
2023-01-15T22:43:18.670Z,0.06
2023-01-15T22:46:03.554Z,0.08
2023-01-15T22:48:48.242Z,0.20
2023-01-15T22:51:33.017Z,0.26
2023-01-15T22:54:18.787Z,0.06
2023-01-15T22:57:04.025Z,0.02
2023-01-15T22:59:49.088Z,0.05
2023-01-15T23:02:33.767Z,0.02
2023-01-15T23:05:18.534Z,-0.19
2023-01-15T23:08:03.401Z,-0.22
2023-01-15T23:10:48.184Z,-0.32
2023-01-15T23:13:32.821Z,-0.25
2023-01-15T23:16:17.765Z,-0.24
2023-01-15T23:19:02.559Z,-0.27
2023-01-15T23:21:47.255Z,-0.18
2023-01-15T23:24:31.881Z,-0.10
2023-01-15T23:27:16.605Z,-0.02
2023-01-15T23:30:01.388Z,0.00
2023-01-15T23:32:46.025Z,0.10
2023-01-15T23:35:30.929Z,-0.02
2023-01-15T23:38:15.547Z,-0.10
2023-01-15T23:41:00.326Z,0.00
2023-01-15T23:43:45.024Z,0.17
2023-01-15T23:46:29.820Z,0.11
2023-01-15T23:49:14.530Z,0.00
2023-01-15T23:51:59.319Z,-0.08
2023-01-15T23:54:44.297Z,-0.14
2023-01-15T23:57:29.050Z,-0.10
